Time;durP1;ratioP1;P1;durP2;ratioP2;P2;SDS_P1;SDS_P2;PMS_P1;PMS_P2;Temp;Humidity;BMP_temperature;BMP_pressure;BME280_temperature;BME280_humidity;BME280_pressure;Samples;Min_cycle;Max_cycle;Signal;HPM_P1;HPM_P2
2022/08/02 00:01:03;;;;;;;7.60;4.15;;;;;;;12.99;100.00;101947.41;6153771;23;20359;-77
2022/08/02 00:03:31;;;;;;;8.05;3.15;;;;;;;12.99;100.00;101942.13;6139189;23;20021;-77
2022/08/02 00:06:00;;;;;;;10.40;3.42;;;;;;;12.97;100.00;101947.38;6165704;23;20146;-77
2022/08/02 00:08:29;;;;;;;7.63;3.00;;;;;;;12.97;100.00;101949.16;6162308;23;20024;-78
2022/08/02 00:10:57;;;;;;;9.95;3.22;;;;;;;12.97;100.00;101955.31;6150910;23;20017;-77
2022/08/02 00:13:26;;;;;;;7.47;3.25;;;;;;;12.98;100.00;101948.28;6162685;23;20032;-78
2022/08/02 00:15:55;;;;;;;5.55;3.05;;;;;;;12.96;100.00;101942.97;6171926;23;20024;-79
2022/08/02 00:18:23;;;;;;;6.57;3.65;;;;;;;12.98;100.00;101941.22;6185046;23;20013;-78
2022/08/02 00:20:52;;;;;;;8.68;3.80;;;;;;;12.98;100.00;101937.69;6157051;23;20036;-78
2022/08/02 00:23:20;;;;;;;7.20;3.30;;;;;;;12.96;100.00;101939.44;6127551;23;20494;-77
2022/08/02 00:25:49;;;;;;;9.88;3.65;;;;;;;12.93;100.00;101940.28;6149170;23;20025;-77
2022/08/02 00:28:24;;;;;;;10.73;3.75;;;;;;;12.93;100.00;101942.03;6062947;23;20021;-78
2022/08/02 00:30:57;;;;;;;12.02;3.80;;;;;;;12.92;100.00;101940.28;6141455;23;20118;-78
2022/08/02 00:33:26;;;;;;;11.73;3.75;;;;;;;12.91;100.00;101954.34;6132712;23;20048;-77
2022/08/02 00:36:14;;;;;;;8.00;3.47;;;;;;;12.90;100.00;101957.88;6078181;23;20227;-77
2022/08/02 00:38:43;;;;;;;8.50;3.80;;;;;;;12.90;100.00;101955.25;6146234;23;20481;-77
2022/08/02 00:41:15;;;;;;;8.57;3.33;;;;;;;12.90;100.00;101961.41;6091181;23;20382;-77
2022/08/02 00:43:47;;;;;;;8.57;4.10;;;;;;;12.88;100.00;101952.56;6130344;23;20332;-78
2022/08/02 00:46:17;;;;;;;7.03;3.40;;;;;;;12.87;100.00;101946.41;6067566;23;20247;-78
2022/08/02 00:48:46;;;;;;;6.78;3.47;;;;;;;12.85;100.00;101947.25;6082464;23;20355;-76
2022/08/02 00:51:17;;;;;;;9.98;3.78;;;;;;;12.81;100.00;101943.66;6110550;23;20037;-78
2022/08/02 00:53:45;;;;;;;8.40;4.18;;;;;;;12.79;100.00;101948.06;6133839;23;20395;-77
2022/08/02 00:56:14;;;;;;;8.90;3.58;;;;;;;12.76;100.00;101941.84;6155438;23;20167;-77
2022/08/02 00:58:42;;;;;;;8.38;3.15;;;;;;;12.73;100.00;101945.34;6160312;23;20032;-78
2022/08/02 01:01:11;;;;;;;7.72;3.30;;;;;;;12.71;100.00;101944.44;6159993;23;20127;-78
2022/08/02 01:03:40;;;;;;;9.35;3.20;;;;;;;12.70;100.00;101942.66;6133902;23;20025;-79
2022/08/02 01:06:08;;;;;;;7.97;3.38;;;;;;;12.70;100.00;101945.28;6159703;23;20442;-77
2022/08/02 01:08:39;;;;;;;12.43;4.18;;;;;;;12.69;100.00;101940.91;6132114;23;20024;-78
2022/08/02 01:11:11;;;;;;;10.40;4.57;;;;;;;12.66;100.00;101941.75;6183999;23;20239;-77
2022/08/02 01:13:40;;;;;;;5.10;3.10;;;;;;;12.65;100.00;101944.38;6181449;23;20017;-78
2022/08/02 01:16:14;;;;;;;8.35;3.83;;;;;;;12.62;100.00;101944.31;6181128;23;20347;-77
2022/08/02 01:18:46;;;;;;;8.95;3.60;;;;;;;12.60;100.00;101935.50;6144797;23;20028;-77
2022/08/02 01:21:39;;;;;;;8.10;3.60;;;;;;;12.59;100.00;101939.00;6182205;23;20017;-77
2022/08/02 01:24:34;;;;;;;10.82;3.75;;;;;;;12.57;100.00;101935.44;6160240;23;20020;-77
2022/08/02 01:27:02;;;;;;;7.28;3.83;;;;;;;12.55;100.00;101927.53;6178000;23;20020;-78
2022/08/02 01:29:36;;;;;;;8.38;3.40;;;;;;;12.53;100.00;101938.91;6175225;23;20027;-77
2022/08/02 01:32:12;;;;;;;9.52;3.63;;;;;;;12.50;100.00;101936.25;6176862;23;20643;-77
2022/08/02 01:34:48;;;;;;;6.70;3.05;;;;;;;12.48;100.00;101939.75;6145880;23;20455;-78
2022/08/02 01:37:34;;;;;;;6.47;3.25;;;;;;;12.46;100.00;101933.56;6185429;23;20470;-77
2022/08/02 01:40:13;;;;;;;8.38;3.70;;;;;;;12.44;100.00;101935.31;6159393;23;20116;-76
2022/08/02 01:42:52;;;;;;;6.38;3.60;;;;;;;12.42;100.00;101920.28;6172459;23;20024;-78
2022/08/02 01:45:28;;;;;;;11.95;3.78;;;;;;;12.39;100.00;101917.59;6183475;23;20350;-78
2022/08/02 01:47:59;;;;;;;8.13;3.78;;;;;;;12.37;100.00;101906.13;6142628;23;20362;-78
2022/08/02 01:50:32;;;;;;;10.77;3.95;;;;;;;12.34;100.00;101895.50;6160863;23;20346;-77
2022/08/02 01:53:06;;;;;;;12.68;4.15;;;;;;;12.32;100.00;101908.69;6180781;23;20021;-77
2022/08/02 01:55:47;;;;;;;7.28;3.85;;;;;;;12.31;100.00;101904.31;6106344;23;20350;-77
2022/08/02 01:58:27;;;;;;;;;;;;;;;12.30;100.00;101902.50;6182424;23;20028;-77
2022/08/02 02:00:57;;;;;;;8.33;3.90;;;;;;;12.28;100.00;101896.31;6206514;23;20260;-78
2022/08/02 02:03:28;;;;;;;7.78;3.20;;;;;;;12.27;100.00;101897.22;6151121;23;20408;-78
2022/08/02 02:06:00;;;;;;;16.02;4.10;;;;;;;12.26;100.00;101900.69;6152948;23;20028;-78
2022/08/02 02:08:35;;;;;;;9.77;4.05;;;;;;;12.26;100.00;101903.34;6186796;23;20459;-78
2022/08/02 02:11:04;;;;;;;10.27;3.38;;;;;;;12.25;100.00;101907.75;6125956;23;20012;-78
2022/08/02 02:13:56;;;;;;;8.25;3.40;;;;;;;12.26;100.00;101908.63;6179066;23;20351;-79
2022/08/02 02:16:27;;;;;;;6.90;3.65;;;;;;;12.26;100.00;101906.00;6185841;23;20028;-78
2022/08/02 02:18:56;;;;;;;7.90;3.92;;;;;;;12.27;100.00;101905.13;6168754;23;20347;-78
2022/08/02 02:21:25;;;;;;;10.45;4.13;;;;;;;12.25;100.00;101898.94;6184727;23;20017;-77
2022/08/02 02:23:54;;;;;;;10.85;3.92;;;;;;;12.23;100.00;101887.44;6145883;23;20025;-78
2022/08/02 02:26:26;;;;;;;;;;;;;;;12.18;100.00;101876.81;6140087;23;20017;-77
2022/08/02 02:29:01;;;;;;;8.15;3.15;;;;;;;12.16;100.00;101875.03;6176422;23;19927;-78
2022/08/02 02:31:37;;;;;;;14.27;3.15;;;;;;;12.13;100.00;101867.06;6185215;23;20017;-77
2022/08/02 02:34:06;;;;;;;12.45;3.85;;;;;;;12.12;100.00;101863.53;6176960;23;20322;-77
2022/08/02 02:36:37;;;;;;;9.57;3.80;;;;;;;12.12;100.00;101866.19;6179964;23;20017;-77
2022/08/02 02:39:06;;;;;;;13.43;3.72;;;;;;;12.14;100.00;101856.50;6156431;23;20017;-77
2022/08/02 02:41:43;;;;;;;9.45;3.40;;;;;;;12.15;100.00;101847.69;6161886;23;20355;-78
2022/08/02 02:44:17;;;;;;;9.30;3.55;;;;;;;12.19;100.00;101848.63;6178691;23;20016;-77
2022/08/02 02:46:49;;;;;;;8.95;3.55;;;;;;;12.18;100.00;101854.81;6184696;23;20028;-78
2022/08/02 02:49:20;;;;;;;10.55;3.40;;;;;;;12.19;100.00;101853.91;6183234;23;20294;-77
2022/08/02 02:51:50;;;;;;;8.85;3.33;;;;;;;12.19;100.00;101852.19;6144073;23;20477;-78
2022/08/02 02:54:21;;;;;;;8.65;3.50;;;;;;;12.20;100.00;101851.31;6186041;23;20028;-77
2022/08/02 02:57:04;;;;;;;8.30;3.65;;;;;;;12.21;100.00;101846.91;6158411;23;20459;-77
2022/08/02 02:59:38;;;;;;;8.05;3.38;;;;;;;12.20;100.00;101847.78;6150382;23;20465;-77
2022/08/02 03:02:18;;;;;;;9.27;3.10;;;;;;;12.18;100.00;101850.41;6159319;23;20231;-77
2022/08/02 03:04:48;;;;;;;7.32;3.38;;;;;;;12.18;100.00;101847.75;6184789;23;20358;-78
2022/08/02 03:07:25;;;;;;;13.65;3.63;;;;;;;12.17;100.00;101845.97;6158960;23;20331;-78
2022/08/02 03:09:54;;;;;;;6.78;3.30;;;;;;;12.17;100.00;101850.38;6172782;23;20478;-78
2022/08/02 03:12:23;;;;;;;10.75;4.45;;;;;;;12.16;100.00;101841.56;6129677;23;20017;-77
2022/08/02 03:15:05;;;;;;;6.78;2.90;;;;;;;12.16;100.00;101844.22;6179818;23;20024;-78
2022/08/02 03:17:42;;;;;;;8.27;3.35;;;;;;;12.16;100.00;101853.91;6153839;23;20351;-77
2022/08/02 03:20:13;;;;;;;10.25;3.58;;;;;;;12.15;100.00;101845.06;6171966;23;20048;-77
2022/08/02 03:22:43;;;;;;;7.80;3.95;;;;;;;12.14;100.00;101840.66;6180186;23;20049;-78
2022/08/02 03:25:13;;;;;;;17.55;4.68;;;;;;;12.15;100.00;101833.63;6158103;23;20135;-77
2022/08/02 03:27:42;;;;;;;5.83;3.73;;;;;;;12.12;100.00;101831.84;6134683;23;20020;-79
2022/08/02 03:30:12;;;;;;;12.18;3.88;;;;;;;12.12;100.00;101834.47;6110668;23;20040;-78
2022/08/02 03:32:45;;;;;;;14.15;4.57;;;;;;;12.12;100.00;101841.50;6156720;23;20028;-77
2022/08/02 03:35:17;;;;;;;11.73;4.40;;;;;;;12.13;100.00;101836.22;6184484;23;20126;-77
2022/08/02 03:37:56;;;;;;;7.35;3.83;;;;;;;12.14;100.00;101834.50;6155113;23;20028;-77
2022/08/02 03:40:27;;;;;;;8.60;3.90;;;;;;;12.14;100.00;101827.44;6185249;23;20017;-77
2022/08/02 03:42:56;;;;;;;6.68;3.63;;;;;;;12.13;100.00;101828.31;6141905;23;20028;-77
2022/08/02 03:45:25;;;;;;;14.23;4.45;;;;;;;12.14;100.00;101829.22;6156378;23;20020;-76
2022/08/02 03:47:54;;;;;;;12.13;4.00;;;;;;;12.14;100.00;101810.72;6149420;23;20021;-77
2022/08/02 03:50:27;;;;;;;11.93;3.88;;;;;;;12.14;100.00;101821.28;6187311;23;20017;-77
2022/08/02 03:52:56;;;;;;;7.97;4.10;;;;;;;12.14;100.00;101810.72;6153744;23;20020;-78
2022/08/02 03:55:25;;;;;;;10.93;3.85;;;;;;;12.14;100.00;101811.59;6185969;23;20053;-77
2022/08/02 03:57:53;;;;;;;13.13;3.95;;;;;;;12.16;100.00;101817.78;6183679;23;20028;-78
2022/08/02 04:00:22;;;;;;;8.43;3.90;;;;;;;12.18;100.00;101815.16;6131097;23;20428;-79
2022/08/02 04:02:51;;;;;;;8.00;4.53;;;;;;;12.18;100.00;101804.59;6178311;23;20016;-77
2022/08/02 04:05:19;;;;;;;9.98;4.20;;;;;;;12.20;100.00;101801.09;6184273;23;20017;-79
2022/08/02 04:07:48;;;;;;;12.48;4.03;;;;;;;12.22;100.00;101795.81;6183352;23;20336;-76
2022/08/02 04:13:28;;;;;;;10.13;4.45;;;;;;;12.23;100.00;101801.13;6185523;23;20020;-77
2022/08/02 04:16:30;;;;;;;7.60;3.60;;;;;;;12.26;100.00;101787.94;6128135;23;20234;-77
2022/08/02 04:19:04;;;;;;;8.48;4.15;;;;;;;12.28;100.00;101786.19;6140890;23;20245;-78
2022/08/02 04:21:40;;;;;;;7.25;3.72;;;;;;;12.31;100.00;101790.66;6136244;23;20017;-77
2022/08/02 04:24:22;;;;;;;8.82;3.88;;;;;;;12.34;100.00;101795.94;6181543;23;20051;-80
2022/08/02 04:26:55;;;;;;;10.25;4.18;;;;;;;12.40;100.00;101790.75;6181622;23;20021;-78
2022/08/02 04:29:35;;;;;;;11.85;4.38;;;;;;;12.45;100.00;101789.03;6165377;23;20012;-77
2022/08/02 04:32:04;;;;;;;13.77;4.47;;;;;;;12.50;100.00;101790.84;6180110;23;20139;-77
2022/08/02 04:34:33;;;;;;;9.00;4.30;;;;;;;12.52;100.00;101797.91;6182976;23;20335;-77
2022/08/02 04:37:01;;;;;;;8.35;4.28;;;;;;;12.55;100.00;101797.06;6121686;23;20237;-77
2022/08/02 04:39:30;;;;;;;11.32;4.65;;;;;;;12.57;100.00;101797.94;6186491;23;20032;-77
2022/08/02 04:41:59;;;;;;;14.77;5.05;;;;;;;12.60;100.00;101785.66;6127605;23;20162;-77
2022/08/02 04:44:27;;;;;;;10.00;5.53;;;;;;;12.62;100.00;101791.84;6150696;23;20028;-77
2022/08/02 04:46:58;;;;;;;14.10;5.50;;;;;;;12.65;100.00;101797.16;6136228;23;20021;-78
2022/08/02 04:49:33;;;;;;;10.85;4.90;;;;;;;12.75;100.00;101791.97;6143170;23;20388;-78
2022/08/02 04:52:02;;;;;;;12.80;4.75;;;;;;;13.24;100.00;101801.19;6180248;23;20322;-78
2022/08/02 04:54:30;;;;;;;13.55;4.63;;;;;;;14.04;100.00;101790.19;6181004;23;20017;-78
2022/08/02 04:56:59;;;;;;;11.20;3.75;;;;;;;14.84;100.00;101794.81;6141200;23;20025;-79
2022/08/02 04:59:27;;;;;;;10.18;4.93;;;;;;;15.65;100.00;101793.88;6186984;23;20021;-77
2022/08/02 05:01:56;;;;;;;10.75;3.72;;;;;;;16.41;100.00;101786.47;6160940;23;20354;-78
2022/08/02 05:04:24;;;;;;;11.93;3.70;;;;;;;17.10;100.00;101784.22;6171702;23;20021;-77
2022/08/02 05:06:53;;;;;;;7.53;3.47;;;;;;;17.73;100.00;101786.25;6125238;23;20025;-78
2022/08/02 05:09:21;;;;;;;8.73;3.83;;;;;;;18.23;100.00;101786.53;6160527;23;20438;-77
2022/08/02 05:11:49;;;;;;;7.35;3.33;;;;;;;18.72;100.00;101774.25;6153821;23;20013;-77
2022/08/02 05:14:22;;;;;;;12.65;3.47;;;;;;;19.06;100.00;101758.56;6161086;23;20332;-76
2022/08/02 05:16:50;;;;;;;9.07;3.75;;;;;;;19.21;100.00;101764.56;6163321;23;20355;-77
2022/08/02 05:19:19;;;;;;;5.45;3.28;;;;;;;19.56;100.00;101774.56;6179264;23;20442;-78
2022/08/02 05:21:47;;;;;;;6.70;3.08;;;;;;;20.00;100.00;101767.47;6172982;23;20013;-78
2022/08/02 05:24:16;;;;;;;8.40;3.00;;;;;;;20.42;100.00;101767.41;6157757;23;20162;-77
2022/08/02 05:26:44;;;;;;;4.63;2.53;;;;;;;20.83;100.00;101767.34;6169429;23;20016;-78
2022/08/02 05:29:13;;;;;;;6.07;2.60;;;;;;;21.25;98.86;101760.91;6183750;23;20155;-77
2022/08/02 05:31:41;;;;;;;5.03;2.80;;;;;;;21.52;96.64;101760.22;6152791;23;20021;-77
2022/08/02 05:34:10;;;;;;;10.27;2.90;;;;;;;21.74;94.71;101757.81;6181037;23;20138;-78
2022/08/02 05:36:40;;;;;;;8.60;2.50;;;;;;;21.84;92.34;101763.78;6180364;23;20028;-77
2022/08/02 05:39:10;;;;;;;6.85;2.80;;;;;;;21.87;90.48;101755.66;6168455;23;20025;-77
2022/08/02 05:41:46;;;;;;;9.35;3.58;;;;;;;21.45;89.79;101761.28;6182739;23;20017;-78
2022/08/02 05:44:15;;;;;;;9.40;2.72;;;;;;;20.99;92.16;101752.66;6177404;23;20013;-77
2022/08/02 05:46:43;;;;;;;10.07;3.10;;;;;;;20.86;93.02;101745.84;6153069;23;20032;-78
2022/08/02 05:49:17;;;;;;;4.97;2.42;;;;;;;21.09;91.58;101749.75;6129519;23;20013;-76
2022/08/02 05:52:13;;;;;;;11.25;2.83;;;;;;;21.19;89.42;101751.25;6178467;23;20359;-79
2022/08/02 05:54:51;;;;;;;9.85;5.25;;;;;;;21.06;90.95;101745.34;6142908;23;20044;-78
2022/08/02 05:57:39;;;;;;;7.53;3.28;;;;;;;21.30;88.78;101757.19;6182176;23;20021;-77
2022/08/02 06:00:13;;;;;;;7.57;2.83;;;;;;;21.66;87.24;101762.50;6139604;23;20195;-78
2022/08/02 06:02:42;;;;;;;7.18;3.00;;;;;;;21.67;85.13;101772.31;6133390;23;20029;-77
2022/08/02 06:05:13;;;;;;;5.93;2.85;;;;;;;21.31;83.87;101769.69;6170800;23;20040;-78
2022/08/02 06:07:43;;;;;;;9.25;3.38;;;;;;;20.96;84.05;101782.22;6141406;23;20231;-78
2022/08/02 06:10:13;;;;;;;6.53;3.00;;;;;;;20.70;84.78;101780.19;6150492;23;20024;-78
2022/08/02 06:12:47;;;;;;;9.20;3.35;;;;;;;20.43;84.91;101776.31;6184722;23;20032;-78
2022/08/02 06:15:17;;;;;;;9.55;3.55;;;;;;;20.12;85.66;101766.31;6115642;23;20021;-78
2022/08/02 06:17:46;;;;;;;8.77;3.25;;;;;;;19.86;86.66;101769.53;6185214;23;20048;-79
2022/08/02 06:20:15;;;;;;;9.40;3.63;;;;;;;19.66;87.11;101764.59;6163112;23;20028;-78
2022/08/02 06:22:43;;;;;;;7.88;4.20;;;;;;;19.46;87.66;101763.16;6127149;23;20020;-78
2022/08/02 06:25:13;;;;;;;9.82;3.97;;;;;;;19.27;88.10;101757.28;6179874;23;20025;-77
2022/08/02 06:28:04;;;;;;;6.05;3.22;;;;;;;19.08;88.88;101758.53;6147202;23;20497;-77
2022/08/02 06:30:39;;;;;;;8.10;3.20;;;;;;;18.97;90.16;101766.75;6179065;23;20017;-77
2022/08/02 06:33:08;;;;;;;11.18;3.70;;;;;;;18.89;91.73;101752.66;6157248;23;20217;-77
2022/08/02 06:36:18;;;;;;;7.50;3.50;;;;;;;18.84;92.51;101751.84;6108750;23;20045;-77
2022/08/02 06:39:16;;;;;;;5.35;3.20;;;;;;;18.79;92.24;101754.56;6133753;23;20116;-77
2022/08/02 06:41:48;;;;;;;6.28;3.45;;;;;;;18.77;92.95;101750.13;6151973;23;20059;-77
2022/08/02 06:44:24;;;;;;;9.57;4.45;;;;;;;18.71;93.07;101748.44;6170254;23;20413;-78
2022/08/02 06:47:12;;;;;;;12.68;3.45;;;;;;;18.66;93.41;101748.53;6155608;23;20025;-78
2022/08/02 06:49:41;;;;;;;9.27;3.70;;;;;;;18.62;94.30;101749.50;6140705;23;20361;-78
2022/08/02 06:52:23;;;;;;;;;;;;;;;18.56;96.64;101744.22;6142188;23;20021;-78
2022/08/02 06:54:58;;;;;;;7.47;3.13;;;;;;;18.56;95.46;101746.91;6181410;23;19924;-78
2022/08/02 06:57:28;;;;;;;9.45;4.10;;;;;;;18.61;96.40;101753.06;6183049;23;20347;-79
2022/08/02 07:00:00;;;;;;;7.25;3.40;;;;;;;18.67;97.10;101744.94;6149747;23;20120;-78
2022/08/02 07:02:30;;;;;;;4.65;2.50;;;;;;;18.74;96.60;101737.72;6179416;23;20029;-78
2022/08/02 07:04:58;;;;;;;9.60;3.22;;;;;;;18.76;96.99;101735.91;6145216;23;20021;-78
2022/08/02 07:07:27;;;;;;;5.18;2.67;;;;;;;18.78;96.02;101727.88;6141438;23;20069;-77
2022/08/02 07:09:56;;;;;;;4.95;2.47;;;;;;;18.83;96.36;101731.41;6169839;23;20020;-77
2022/08/02 07:12:32;;;;;;;9.63;3.28;;;;;;;18.89;97.30;101725.94;6185017;23;20021;-78
2022/08/02 07:15:04;;;;;;;8.02;2.90;;;;;;;18.96;96.98;101724.94;6182083;23;20346;-78
2022/08/02 07:17:34;;;;;;;9.75;2.90;;;;;;;18.99;96.83;101714.16;6177745;23;20021;-79
2022/08/02 07:20:03;;;;;;;6.18;2.80;;;;;;;19.00;96.08;101710.59;6185598;23;20028;-79
2022/08/02 07:22:32;;;;;;;10.00;2.72;;;;;;;19.04;96.10;101706.97;6163178;23;20017;-79
2022/08/02 07:25:01;;;;;;;10.75;2.75;;;;;;;19.12;96.56;101711.28;6185165;23;20017;-78
2022/08/02 07:27:30;;;;;;;10.23;2.65;;;;;;;19.21;96.85;101720.00;6144898;23;20021;-79
2022/08/02 07:29:59;;;;;;;6.32;2.33;;;;;;;19.28;96.71;101727.00;6180622;23;20021;-78
2022/08/02 07:32:30;;;;;;;5.20;2.30;;;;;;;19.34;96.12;101723.34;6154141;23;20028;-78
2022/08/02 07:35:00;;;;;;;4.35;1.95;;;;;;;19.39;95.15;101718.75;6186145;23;20013;-78
2022/08/02 07:37:37;;;;;;;5.15;1.90;;;;;;;19.47;95.41;101722.19;6135791;23;20020;-79
2022/08/02 07:40:26;;;;;;;5.85;2.47;;;;;;;19.54;94.21;101711.34;6185030;23;20049;-79
2022/08/02 07:42:56;;;;;;;7.85;2.53;;;;;;;19.59;93.50;101710.34;6129360;23;20036;-79
2022/08/02 07:45:32;;;;;;;7.60;2.63;;;;;;;19.68;93.64;101698.59;6145241;23;20028;-79
2022/08/02 07:48:04;;;;;;;6.72;2.30;;;;;;;19.73;93.48;101695.84;6157103;23;20024;-78
2022/08/02 07:50:33;;;;;;;7.38;2.72;;;;;;;19.80;93.20;101701.03;6147993;23;20032;-78
2022/08/02 07:53:02;;;;;;;4.05;1.90;;;;;;;19.89;93.32;101693.72;6139669;23;20017;-78
2022/08/02 07:55:30;;;;;;;4.45;1.67;;;;;;;19.99;92.67;101689.91;6157347;23;20017;-78
2022/08/02 07:58:11;;;;;;;9.20;3.30;;;;;;;20.11;92.97;101692.31;6123102;23;20029;-79
2022/08/02 08:00:42;;;;;;;7.63;2.42;;;;;;;20.22;92.18;101690.25;6177482;23;20021;-79
2022/08/02 08:03:11;;;;;;;4.22;1.90;;;;;;;20.29;90.92;101680.31;6179845;23;20032;-79
2022/08/02 08:05:40;;;;;;;3.47;1.50;;;;;;;20.39;91.21;101681.81;6133352;23;20600;-79
2022/08/02 08:08:09;;;;;;;4.72;1.83;;;;;;;20.50;90.45;101678.88;6178914;23;20021;-79
2022/08/02 08:10:45;;;;;;;4.85;1.98;;;;;;;20.58;89.52;101674.22;6131204;23;20017;-79
2022/08/02 08:13:14;;;;;;;4.85;1.65;;;;;;;20.64;88.54;101682.13;6180724;23;20032;-78
2022/08/02 08:15:44;;;;;;;4.80;1.63;;;;;;;20.69;87.48;101675.78;6128831;23;20024;-79
2022/08/02 08:18:20;;;;;;;7.68;1.77;;;;;;;20.78;88.74;101678.22;6179576;23;20025;-80
2022/08/02 08:20:50;;;;;;;4.37;1.60;;;;;;;20.88;88.04;101671.69;6183287;23;20017;-79
2022/08/02 08:23:19;;;;;;;3.83;1.23;;;;;;;20.94;86.48;101676.00;6187552;23;20025;-79
2022/08/02 08:25:47;;;;;;;3.35;1.42;;;;;;;20.96;84.50;101677.75;6163401;23;20390;-79
2022/08/02 08:28:16;;;;;;;2.92;1.30;;;;;;;20.98;82.24;101675.91;6178013;23;20017;-80
2022/08/02 08:30:46;;;;;;;4.38;1.30;;;;;;;21.00;82.17;101668.69;6178121;23;20271;-80
2022/08/02 08:33:14;;;;;;;1.63;1.10;;;;;;;21.05;81.17;101665.00;6180242;23;20021;-77
2022/08/02 08:35:43;;;;;;;5.72;1.85;;;;;;;21.07;80.35;101647.94;6177190;23;20234;-79
2022/08/02 08:38:12;;;;;;;2.72;1.50;;;;;;;21.11;80.09;101648.75;6149536;23;20497;-78
2022/08/02 08:40:43;;;;;;;4.95;2.10;;;;;;;21.17;81.06;101653.94;6136183;23;20166;-79
2022/08/02 08:43:13;;;;;;;3.72;1.52;;;;;;;21.27;80.76;101649.22;6179360;23;20024;-79
2022/08/02 08:45:48;;;;;;;2.63;1.23;;;;;;;21.34;78.71;101654.34;6180481;23;20017;-78
2022/08/02 08:48:24;;;;;;;2.70;1.50;;;;;;;21.41;79.87;101649.66;6177838;23;20036;-79
2022/08/02 08:51:20;;;;;;;12.82;1.73;;;;;;;21.47;76.83;101651.31;6158694;23;20036;-79
2022/08/02 08:53:53;;;;;;;1.83;1.20;;;;;;;21.51;78.88;101650.31;6182482;23;20234;-78
2022/08/02 08:56:22;;;;;;;2.35;1.00;;;;;;;21.52;76.90;101644.91;6172270;23;20020;-79
2022/08/02 08:58:50;;;;;;;4.65;1.10;;;;;;;21.55;77.09;101654.66;6138172;23;20218;-79
2022/08/02 09:01:20;;;;;;;1.60;0.82;;;;;;;21.62;78.15;101650.88;6149976;23;20028;-78
2022/08/02 09:03:48;;;;;;;4.18;1.35;;;;;;;21.67;78.79;101646.25;6151989;23;20056;-77
2022/08/02 09:06:19;;;;;;;2.75;1.40;;;;;;;21.75;78.32;101638.84;6105453;23;20350;-78
2022/08/02 09:08:47;;;;;;;3.38;1.30;;;;;;;21.85;78.38;101638.56;6179726;23;20156;-77
2022/08/02 09:11:19;;;;;;;1.23;1.13;;;;;;;21.96;77.33;101639.09;6087312;23;20025;-78
2022/08/02 09:13:59;;;;;;;2.03;1.23;;;;;;;22.05;74.72;101638.81;6153035;23;20451;-80
2022/08/02 09:16:41;;;;;;;4.53;1.20;;;;;;;22.10;75.04;101644.91;6171548;23;20028;-78
2022/08/02 09:19:24;;;;;;;3.92;1.08;;;;;;;22.13;75.19;101638.53;6112510;23;20447;-78
2022/08/02 09:22:03;;;;;;;3.38;1.40;;;;;;;22.17;75.67;101641.09;6166921;23;20344;-78
2022/08/02 09:24:52;;;;;;;1.45;1.10;;;;;;;22.27;73.27;101630.06;6182431;23;20055;-78
2022/08/02 09:27:22;;;;;;;4.30;1.58;;;;;;;22.35;74.88;101620.84;6160113;23;20025;-78
2022/08/02 09:29:53;;;;;;;1.70;1.20;;;;;;;22.44;73.80;101608.00;6184395;23;20032;-77
2022/08/02 09:32:45;;;;;;;1.20;0.95;;;;;;;22.47;71.34;101622.22;6172701;23;20267;-78
2022/08/02 09:35:34;;;;;;;6.95;1.30;;;;;;;22.52;71.56;101617.56;6138811;23;20347;-80
2022/08/02 09:38:25;;;;;;;0.98;0.90;;;;;;;22.64;71.74;101618.94;6170927;23;20158;-77
2022/08/02 09:40:54;;;;;;;3.92;1.65;;;;;;;22.71;71.55;101627.69;6135116;23;20021;-78
2022/08/02 09:43:40;;;;;;;2.50;1.27;;;;;;;22.76;69.38;101620.34;6099274;23;20376;-77
2022/08/02 09:46:32;;;;;;;1.50;0.93;;;;;;;22.77;70.30;101622.94;6143901;23;20158;-79
2022/08/02 09:49:04;;;;;;;2.85;1.10;;;;;;;22.80;70.61;101632.72;6179749;23;20017;-77
2022/08/02 09:51:47;;;;;;;3.15;0.80;;;;;;;22.81;69.83;101629.09;6145911;23;20350;-78
2022/08/02 09:54:27;;;;;;;2.97;1.00;;;;;;;22.84;70.06;101622.75;6169919;23;20013;-78
2022/08/02 09:56:58;;;;;;;4.05;0.80;;;;;;;22.87;69.91;101619.94;6158638;23;20024;-78
2022/08/02 09:59:27;;;;;;;2.53;1.45;;;;;;;22.87;69.24;101615.47;6158209;23;20639;-78
2022/08/02 10:01:58;;;;;;;2.97;1.27;;;;;;;22.86;69.35;101618.19;6149299;23;20021;-77
2022/08/02 10:04:31;;;;;;;1.63;0.90;;;;;;;22.81;67.59;101610.28;6102798;23;20037;-77
2022/08/02 10:07:21;;;;;;;3.15;1.25;;;;;;;22.80;68.49;101600.50;6107314;23;20638;-77
2022/08/02 10:09:50;;;;;;;1.40;1.30;;;;;;;22.85;68.87;101603.00;6101059;23;20323;-77
2022/08/02 10:12:22;;;;;;;5.30;1.27;;;;;;;22.90;67.44;101606.41;6145065;23;20041;-78
2022/08/02 10:14:51;;;;;;;2.05;1.52;;;;;;;22.97;68.03;101607.94;6126204;23;20018;-78
2022/08/02 10:17:20;;;;;;;2.60;1.02;;;;;;;23.05;67.11;101600.50;6078625;23;20018;-77
2022/08/02 10:19:48;;;;;;;1.10;1.00;;;;;;;23.13;67.58;101592.13;6108519;23;20021;-76
2022/08/02 10:22:33;;;;;;;1.23;1.00;;;;;;;23.23;68.13;101596.25;6117103;23;20021;-77
2022/08/02 10:25:04;;;;;;;2.00;1.10;;;;;;;23.38;68.24;101581.31;6090644;23;20014;-77
2022/08/02 10:27:34;;;;;;;1.23;1.13;;;;;;;23.51;69.38;101587.09;6110867;23;20029;-77
2022/08/02 10:30:26;;;;;;;3.95;1.02;;;;;;;23.64;69.25;101588.38;6123318;23;20566;-79
2022/08/02 10:32:58;;;;;;;2.17;1.40;;;;;;;23.71;68.11;101579.13;6072583;23;20474;-77
2022/08/02 10:35:29;;;;;;;1.30;1.17;;;;;;;23.82;67.80;101570.66;6110855;23;20025;-77
2022/08/02 10:38:02;;;;;;;3.30;1.73;;;;;;;23.92;67.81;101569.31;6118324;23;20013;-77
2022/08/02 10:40:45;;;;;;;0.90;0.85;;;;;;;24.01;68.22;101562.69;6142613;23;20582;-77
2022/08/02 10:43:35;;;;;;;1.90;1.40;;;;;;;24.11;68.67;101549.72;6110132;23;20165;-77
2022/08/02 10:46:19;;;;;;;3.50;1.20;;;;;;;24.17;68.26;101564.72;6121720;23;20032;-77
2022/08/02 10:49:01;;;;;;;1.83;1.20;;;;;;;24.25;67.62;101550.00;6103960;23;20026;-76
2022/08/02 10:52:04;;;;;;;4.45;1.40;;;;;;;24.33;69.06;101566.72;6081377;23;20528;-78
2022/08/02 10:54:41;;;;;;;2.88;1.23;;;;;;;24.46;69.68;101555.38;6145561;23;20140;-78
2022/08/02 10:57:17;;;;;;;2.63;1.52;;;;;;;24.58;69.17;101552.19;6131172;23;20018;-77
2022/08/02 10:59:47;;;;;;;3.40;1.67;;;;;;;24.67;69.24;101559.00;6128395;23;20014;-77
2022/08/02 11:02:37;;;;;;;3.50;1.70;;;;;;;24.74;67.98;101546.13;6127719;23;20432;-77
2022/08/02 11:05:09;;;;;;;4.80;1.65;;;;;;;24.78;69.87;101543.19;6179800;23;20351;-79
2022/08/02 11:07:41;;;;;;;2.38;1.58;;;;;;;24.88;70.13;101546.38;6178508;23;20017;-78
2022/08/02 11:10:24;;;;;;;1.90;1.50;;;;;;;24.95;69.56;101546.94;6175333;23;20509;-79
2022/08/02 11:13:10;;;;;;;4.05;1.45;;;;;;;25.06;68.92;101539.25;6174275;23;20028;-79
2022/08/02 11:16:00;;;;;;;2.78;1.40;;;;;;;25.23;71.00;101538.47;6172185;23;20225;-79
2022/08/02 11:18:50;;;;;;;3.08;1.77;;;;;;;25.43;71.41;101533.00;6159824;23;20451;-79
2022/08/02 11:21:24;;;;;;;2.88;1.52;;;;;;;25.64;71.85;101541.00;6177790;23;20069;-79
2022/08/02 11:23:53;;;;;;;2.67;1.50;;;;;;;25.80;70.73;101547.41;6139424;23;20522;-80
2022/08/02 11:26:28;;;;;;;4.15;1.90;;;;;;;25.88;69.64;101534.41;6092371;23;20029;-79
2022/08/02 11:29:02;;;;;;;4.35;1.58;;;;;;;25.86;70.26;101546.22;6147334;23;20320;-79
2022/08/02 11:31:42;;;;;;;2.33;2.05;;;;;;;25.80;69.52;101543.81;6172423;23;20466;-79
2022/08/02 11:34:10;;;;;;;4.28;1.70;;;;;;;25.74;69.59;101538.72;6166829;23;20021;-79
2022/08/02 11:36:59;;;;;;;5.10;1.58;;;;;;;25.63;71.01;101540.16;6150243;23;20032;-78
2022/08/02 11:39:28;;;;;;;3.90;2.20;;;;;;;25.57;70.44;101540.44;6172346;23;20028;-78
2022/08/02 11:41:58;;;;;;;2.33;1.80;;;;;;;25.60;71.90;101534.88;6133989;23;20411;-78
2022/08/02 11:44:39;;;;;;;3.58;1.80;;;;;;;25.66;68.99;101544.50;6181455;23;20021;-78
2022/08/02 11:47:12;;;;;;;4.30;2.00;;;;;;;25.66;70.54;101534.59;6133332;23;20021;-78
2022/08/02 11:49:43;;;;;;;3.83;1.60;;;;;;;25.70;70.11;101529.91;6139537;23;20017;-78
2022/08/02 11:52:12;;;;;;;5.05;1.80;;;;;;;25.79;70.46;101534.00;6158042;23;20021;-78
2022/08/02 11:54:42;;;;;;;3.20;1.67;;;;;;;25.83;70.68;101520.25;6172844;23;20214;-76